createdAt,value
2023-02-14T00:00:09.401Z,102886.23
2023-02-14T00:01:13.780Z,102893.39
2023-02-14T00:02:18.242Z,102892.77
2023-02-14T00:03:22.596Z,102894.69
2023-02-14T00:04:27.114Z,102891.89
2023-02-14T00:05:31.697Z,102893.19
2023-02-14T00:06:36.007Z,102886.98
2023-02-14T00:07:40.318Z,102894.67
2023-02-14T00:08:44.606Z,102893.8
2023-02-14T00:09:48.913Z,102894.77
2023-02-14T00:10:53.190Z,102897.06
2023-02-14T00:11:57.481Z,102895.59
2023-02-14T00:13:01.795Z,102897.02
2023-02-14T00:14:06.100Z,102897.14
2023-02-14T00:15:10.412Z,102897.18
2023-02-14T00:16:14.800Z,102893.55
2023-02-14T00:17:19.196Z,102897.98
2023-02-14T00:18:23.545Z,102899.23
2023-02-14T00:19:27.828Z,102897.02
2023-02-14T00:20:32.111Z,102899.91
2023-02-14T00:21:36.409Z,102894.66
2023-02-14T00:22:40.702Z,102896.17
2023-02-14T00:23:45.027Z,102891.53
2023-02-14T00:24:49.293Z,102898.19
2023-02-14T00:25:53.597Z,102896.64
2023-02-14T00:26:57.899Z,102897.02
2023-02-14T00:28:02.244Z,102894.34
2023-02-14T00:29:06.553Z,102891.98
2023-02-14T00:30:10.986Z,102890.77
2023-02-14T00:31:15.656Z,102886.89
2023-02-14T00:32:20.271Z,102888.47
2023-02-14T00:33:24.997Z,102889.03
2023-02-14T00:34:29.362Z,102884.59
2023-02-14T00:35:33.665Z,102890.7
2023-02-14T00:36:37.978Z,102889.86
2023-02-14T00:37:42.332Z,102892.96
2023-02-14T00:38:46.629Z,102894.02
2023-02-14T00:39:50.972Z,102888.63
2023-02-14T00:40:55.329Z,102889.2
2023-02-14T00:41:59.798Z,102891.24
2023-02-14T00:43:04.096Z,102897.56
2023-02-14T00:44:08.356Z,102896.59
2023-02-14T00:45:12.633Z,102898.01
2023-02-14T00:46:17.125Z,102901.11
2023-02-14T00:47:21.413Z,102893.19
2023-02-14T00:48:25.702Z,102899.39
2023-02-14T00:49:29.984Z,102902.14
2023-02-14T00:50:34.299Z,102908.45
2023-02-14T00:51:38.581Z,102900.89
2023-02-14T00:52:42.869Z,102899.92
2023-02-14T00:53:48.201Z,102897.37
2023-02-14T00:54:52.488Z,102905.66
2023-02-14T00:55:56.776Z,102903.1
2023-02-14T00:57:01.136Z,102900.13
2023-02-14T00:58:05.497Z,102906.83
2023-02-14T00:59:09.789Z,102901.42
2023-02-14T01:00:14.053Z,102904.48
2023-02-14T01:01:18.532Z,102898.79
2023-02-14T01:02:23.029Z,102902.81
2023-02-14T01:03:27.439Z,102906.94
2023-02-14T01:04:31.779Z,102906.02
2023-02-14T01:05:36.099Z,102909
2023-02-14T01:06:40.413Z,102906.9
2023-02-14T01:07:44.781Z,102908.74
2023-02-14T01:08:49.073Z,102902.59
2023-02-14T01:09:53.621Z,102918.57
2023-02-14T01:10:58.623Z,102908.16
2023-02-14T01:12:03.688Z,102919.91
2023-02-14T01:13:07.989Z,102921.29
2023-02-14T01:14:12.257Z,102915.02
2023-02-14T01:15:16.557Z,102916.58
2023-02-14T01:16:20.988Z,102920.29
2023-02-14T01:17:25.380Z,102914.86
2023-02-14T01:18:29.661Z,102908.23
2023-02-14T01:19:34.022Z,102909.95
2023-02-14T01:20:38.381Z,102919.53
2023-02-14T01:21:42.728Z,102910.16
2023-02-14T01:22:47.118Z,102908.81
2023-02-14T01:23:51.453Z,102910.95
2023-02-14T01:24:55.820Z,102898.87
2023-02-14T01:26:00.143Z,102905.77
2023-02-14T01:27:04.436Z,102898.91
2023-02-14T01:28:08.721Z,102895.11
2023-02-14T01:29:13.014Z,102898.75
2023-02-14T01:30:17.356Z,102895.85
2023-02-14T01:31:22.145Z,102896.11
2023-02-14T01:32:26.778Z,102896.27
2023-02-14T01:33:31.116Z,102898.11
2023-02-14T01:34:35.439Z,102891.41
2023-02-14T01:35:39.898Z,102894.55
2023-02-14T01:36:44.247Z,102889.31
2023-02-14T01:37:48.518Z,102892.08
2023-02-14T01:38:52.806Z,102892.03
2023-02-14T01:39:57.098Z,102889.52
2023-02-14T01:41:02.094Z,102888.64
2023-02-14T01:42:06.430Z,102886.84
2023-02-14T01:43:10.744Z,102888.55
2023-02-14T01:44:15.098Z,102889.02
2023-02-14T01:45:19.395Z,102895.72
2023-02-14T01:46:23.687Z,102883.13
2023-02-14T01:47:27.982Z,102886.68
2023-02-14T01:48:32.280Z,102890.27
2023-02-14T01:49:36.601Z,102885.96
2023-02-14T01:50:40.887Z,102887.26
2023-02-14T01:51:45.168Z,102892.5
2023-02-14T01:52:49.448Z,102886.3
2023-02-14T01:53:53.721Z,102883.05
2023-02-14T01:54:58.018Z,102887.22
2023-02-14T01:56:02.327Z,102895.17
2023-02-14T01:57:06.596Z,102887.52
2023-02-14T01:58:11.020Z,102886.3
2023-02-14T01:59:15.369Z,102878.69
2023-02-14T02:00:19.710Z,102886.34
2023-02-14T02:01:24.157Z,102880.41
2023-02-14T02:02:28.774Z,102885.3
2023-02-14T02:03:33.138Z,102888.44
2023-02-14T02:04:37.429Z,102887.3
2023-02-14T02:05:41.722Z,102894.37
2023-02-14T02:06:46.024Z,102883.28
2023-02-14T02:07:50.409Z,102887.42
2023-02-14T02:08:54.976Z,102886.88
2023-02-14T02:09:59.261Z,102888.22
2023-02-14T02:11:03.594Z,102885.58
2023-02-14T02:12:07.890Z,102883.66
2023-02-14T02:13:12.201Z,102880.19
2023-02-14T02:14:16.496Z,102879.84
2023-02-14T02:15:20.777Z,102886.5
2023-02-14T02:16:25.162Z,102884.45
2023-02-14T02:17:29.570Z,102876.91
2023-02-14T02:18:33.894Z,102874.91
2023-02-14T02:19:38.187Z,102870.86
2023-02-14T02:20:42.461Z,102871.44
2023-02-14T02:21:46.765Z,102873.07
2023-02-14T02:22:51.060Z,102878.61
2023-02-14T02:23:55.354Z,102875.62
2023-02-14T02:24:59.651Z,102872.69
2023-02-14T02:26:03.957Z,102871.95
2023-02-14T02:27:09.659Z,102877.47
2023-02-14T02:28:13.974Z,102881.52
2023-02-14T02:29:18.279Z,102869.94
2023-02-14T02:30:22.751Z,102877.84
2023-02-14T02:31:27.589Z,102866.38
2023-02-14T02:32:32.086Z,102866
2023-02-14T02:33:36.365Z,102871.61
2023-02-14T02:34:40.645Z,102868.94
2023-02-14T02:35:44.953Z,102872.62
2023-02-14T02:36:49.245Z,102865.45
2023-02-14T02:37:53.530Z,102871.77
2023-02-14T02:38:57.806Z,102871.48
2023-02-14T02:40:02.143Z,102869.52
2023-02-14T02:41:06.678Z,102874.45
2023-02-14T02:42:10.962Z,102874.66
2023-02-14T02:43:15.262Z,102876.84
2023-02-14T02:44:19.607Z,102875.95
2023-02-14T02:45:23.900Z,102868.8
2023-02-14T02:46:28.338Z,102871.44
2023-02-14T02:47:32.757Z,102865.23
2023-02-14T02:48:37.082Z,102865.86
2023-02-14T02:49:41.393Z,102853.39
2023-02-14T02:50:45.683Z,102860.13
2023-02-14T02:51:49.998Z,102858.33
2023-02-14T02:52:54.289Z,102863.02
2023-02-14T02:53:58.567Z,102860.13
2023-02-14T02:55:02.881Z,102854.31
2023-02-14T02:56:07.266Z,102854.77
2023-02-14T02:57:11.561Z,102854.95
2023-02-14T02:58:15.852Z,102860.27
2023-02-14T02:59:20.162Z,102851.77
2023-02-14T03:00:24.463Z,102857.72
2023-02-14T03:01:28.946Z,102854.19
2023-02-14T03:02:33.367Z,102852.73
2023-02-14T03:03:37.847Z,102847.5
2023-02-14T03:04:42.328Z,102853.98
2023-02-14T03:05:46.748Z,102851.73
2023-02-14T03:06:51.043Z,102854.95
2023-02-14T03:07:55.338Z,102852.7
2023-02-14T03:08:59.633Z,102856.33
2023-02-14T03:10:03.940Z,102857.67
2023-02-14T03:11:08.228Z,102861.3
2023-02-14T03:12:12.489Z,102860.92
2023-02-14T03:13:16.828Z,102857.83
2023-02-14T03:14:21.142Z,102860.89
2023-02-14T03:15:25.614Z,102856.75
2023-02-14T03:16:29.945Z,102860.08
2023-02-14T03:17:34.248Z,102856.53
2023-02-14T03:18:38.545Z,102852.85
2023-02-14T03:19:42.840Z,102855.65
2023-02-14T03:20:47.121Z,102852.14
2023-02-14T03:21:51.407Z,102864.72
2023-02-14T03:22:55.719Z,102868.16
2023-02-14T03:23:59.990Z,102862.34
2023-02-14T03:25:04.309Z,102861.58
2023-02-14T03:26:08.581Z,102868.66
2023-02-14T03:27:12.930Z,102860.89
2023-02-14T03:28:17.233Z,102868.96
2023-02-14T03:29:21.525Z,102867.24
2023-02-14T03:30:26.005Z,102870.37
2023-02-14T03:31:30.756Z,102869.54
2023-02-14T03:32:35.272Z,102868.28
2023-02-14T03:33:39.599Z,102879.41
2023-02-14T03:34:43.887Z,102876.73
2023-02-14T03:35:48.237Z,102878.98
2023-02-14T03:36:52.535Z,102877.73
2023-02-14T03:37:56.816Z,102875.86
2023-02-14T03:39:01.130Z,102873.63
2023-02-14T03:40:05.420Z,102866.98
2023-02-14T03:41:09.719Z,102868.73
2023-02-14T03:42:14.064Z,102865.27
2023-02-14T03:43:18.351Z,102865.59
2023-02-14T03:44:22.652Z,102870.03
2023-02-14T03:45:27.026Z,102867.31
2023-02-14T03:46:31.578Z,102869.92
2023-02-14T03:47:36.196Z,102872.17
2023-02-14T03:48:40.474Z,102866.4
2023-02-14T03:49:44.770Z,102867.52
2023-02-14T03:50:49.286Z,102870.03
2023-02-14T03:51:53.597Z,102865.06
2023-02-14T03:52:57.940Z,102875.66
2023-02-14T03:54:02.248Z,102873.89
2023-02-14T03:55:06.608Z,102872.72
2023-02-14T03:56:10.937Z,102877.91
2023-02-14T03:57:15.340Z,102872.98
2023-02-14T03:58:19.689Z,102872.17
2023-02-14T03:59:23.970Z,102870.12
2023-02-14T04:00:28.399Z,102870.12
2023-02-14T04:01:32.864Z,102869.61
2023-02-14T04:02:37.235Z,102868.31
2023-02-14T04:03:41.720Z,102870.95
2023-02-14T04:04:46.126Z,102866.64
2023-02-14T04:05:50.411Z,102863.88
2023-02-14T04:06:54.721Z,102862.55
2023-02-14T04:07:59.020Z,102864.3
2023-02-14T04:09:03.324Z,102862.2
2023-02-14T04:10:07.626Z,102863.74
2023-02-14T04:11:11.935Z,102866.64
2023-02-14T04:12:19.808Z,102864.92
2023-02-14T04:13:40.576Z,102867.27
2023-02-14T04:14:44.841Z,102870.02
2023-02-14T04:15:49.435Z,102868.41
2023-02-14T04:16:53.903Z,102869.52
2023-02-14T04:17:58.212Z,102878.73
2023-02-14T04:19:02.506Z,102876.77
2023-02-14T04:20:06.785Z,102876.23
2023-02-14T04:21:11.076Z,102875.73
2023-02-14T04:22:15.384Z,102870.87
2023-02-14T04:23:19.670Z,102873.55
2023-02-14T04:24:23.966Z,102872.44
2023-02-14T04:25:28.284Z,102870.72
2023-02-14T04:26:32.556Z,102871.64
2023-02-14T04:27:36.849Z,102869.34
2023-02-14T04:28:41.243Z,102870.25
2023-02-14T04:29:45.657Z,102872.29
2023-02-14T04:30:50.012Z,102872.38
2023-02-14T04:31:54.791Z,102883.24
2023-02-14T04:32:59.208Z,102873.65
2023-02-14T04:34:03.486Z,102879.58
2023-02-14T04:35:07.767Z,102877.75
2023-02-14T04:36:12.114Z,102880.47
2023-02-14T04:37:16.393Z,102883.59
2023-02-14T04:38:20.695Z,102875.56
2023-02-14T04:39:24.987Z,102877.28
2023-02-14T04:40:29.288Z,102877.86
2023-02-14T04:41:33.621Z,102877.79
2023-02-14T04:42:37.984Z,102880.05
2023-02-14T04:43:42.284Z,102880.42
2023-02-14T04:44:46.589Z,102872.31
2023-02-14T04:45:50.900Z,102874.63
2023-02-14T04:46:55.297Z,102867.98
2023-02-14T04:47:59.671Z,102875.37
2023-02-14T04:49:03.953Z,102868.42
2023-02-14T04:50:08.311Z,102868.88
2023-02-14T04:51:12.652Z,102864.28
2023-02-14T04:52:16.934Z,102866.04
2023-02-14T04:53:21.218Z,102864.16
2023-02-14T04:54:25.572Z,102866.64
2023-02-14T04:55:29.870Z,102867.14
2023-02-14T04:56:34.160Z,102870.2
2023-02-14T04:57:38.486Z,102866.06
2023-02-14T04:58:42.781Z,102879.41
2023-02-14T04:59:47.091Z,102872.75
2023-02-14T05:00:51.523Z,102872.72
2023-02-14T05:01:56.136Z,102865.8
2023-02-14T05:03:00.563Z,102870.44
2023-02-14T05:04:04.885Z,102864.88
2023-02-14T05:05:09.229Z,102862.25
2023-02-14T05:06:13.516Z,102858.41
2023-02-14T05:07:17.862Z,102871.94
2023-02-14T05:08:22.144Z,102868.77
2023-02-14T05:09:26.434Z,102867.7
2023-02-14T05:10:30.743Z,102871.87
2023-02-14T05:11:35.079Z,102865.73
2023-02-14T05:12:39.420Z,102861.81
2023-02-14T05:13:43.701Z,102871.73
2023-02-14T05:14:48.006Z,102868.46
2023-02-14T05:15:52.290Z,102865.69
2023-02-14T05:16:56.829Z,102868.86
2023-02-14T05:18:01.298Z,102870.16
2023-02-14T05:19:05.613Z,102872
2023-02-14T05:20:09.920Z,102868.14
2023-02-14T05:21:14.199Z,102869.22
2023-02-14T05:22:19.654Z,102875.62
2023-02-14T05:23:23.961Z,102870.83
2023-02-14T05:24:28.288Z,102871.63
2023-02-14T05:25:32.608Z,102871.45
2023-02-14T05:26:36.930Z,102873.17
2023-02-14T05:27:41.225Z,102870.81
2023-02-14T05:28:45.505Z,102871.23
2023-02-14T05:29:49.866Z,102868.09
2023-02-14T05:30:54.331Z,102874.72
2023-02-14T05:31:58.896Z,102868.6
2023-02-14T05:33:03.284Z,102876.23
2023-02-14T05:34:07.571Z,102881.97
2023-02-14T05:35:11.886Z,102874.94
2023-02-14T05:36:16.190Z,102887
2023-02-14T05:37:20.484Z,102888.09
2023-02-14T05:38:24.770Z,102884.24
2023-02-14T05:39:29.062Z,102882.25
2023-02-14T05:40:33.367Z,102883.75
2023-02-14T05:42:40.136Z,102885.31
2023-02-14T05:43:44.441Z,102878.81
2023-02-14T05:44:48.735Z,102889.67
2023-02-14T05:45:53.230Z,102887.67
2023-02-14T05:46:57.712Z,102887.04
2023-02-14T05:48:02.016Z,102889.81
2023-02-14T05:49:06.365Z,102890.1
2023-02-14T05:50:10.693Z,102890.61
2023-02-14T05:51:15.068Z,102889.81
2023-02-14T05:52:19.404Z,102886.38
2023-02-14T05:53:23.705Z,102889.19
2023-02-14T05:54:28.032Z,102885.38
2023-02-14T05:55:32.451Z,102885.42
2023-02-14T05:56:36.721Z,102886.92
2023-02-14T05:57:41.060Z,102888.36
2023-02-14T05:58:45.364Z,102894.75
2023-02-14T05:59:49.686Z,102889.53
2023-02-14T06:00:54.026Z,102890.11
2023-02-14T06:01:58.478Z,102894.67
2023-02-14T06:03:02.877Z,102899.28
2023-02-14T06:04:07.366Z,102893.25
2023-02-14T06:05:11.768Z,102893.66
2023-02-14T06:06:16.133Z,102886.97
2023-02-14T06:07:20.426Z,102892.11
2023-02-14T06:08:24.750Z,102891.78
2023-02-14T06:09:32.152Z,102897.52
2023-02-14T06:10:36.444Z,102899.28
2023-02-14T06:11:40.775Z,102901.91
2023-02-14T06:12:45.076Z,102901.37
2023-02-14T06:13:49.393Z,102905.98
2023-02-14T06:14:53.683Z,102895.84
2023-02-14T06:15:57.959Z,102895.05
2023-02-14T06:17:02.448Z,102897.73
2023-02-14T06:18:06.839Z,102899.08
2023-02-14T06:19:11.174Z,102905.4
2023-02-14T06:20:15.455Z,102902.92
2023-02-14T06:21:19.761Z,102902.45
2023-02-14T06:22:24.170Z,102903.68
2023-02-14T06:23:28.460Z,102910.12
2023-02-14T06:24:32.758Z,102911.97
2023-02-14T06:25:37.036Z,102911.17
2023-02-14T06:26:41.338Z,102904.59
2023-02-14T06:27:47.142Z,102909.52
2023-02-14T06:28:52.793Z,102906.89
2023-02-14T06:29:57.214Z,102902.53
2023-02-14T06:31:02.881Z,102905.22
2023-02-14T06:32:08.645Z,102904.88
2023-02-14T06:33:13.286Z,102904.84
2023-02-14T06:34:17.581Z,102907.25
2023-02-14T06:35:21.880Z,102906.72
2023-02-14T06:36:26.616Z,102914.42
2023-02-14T06:37:30.939Z,102903.7
2023-02-14T06:38:35.268Z,102906
2023-02-14T06:39:39.540Z,102914.53
2023-02-14T06:40:43.864Z,102910.52
2023-02-14T06:41:48.168Z,102908.73
2023-02-14T06:42:52.449Z,102911.86
2023-02-14T06:43:56.752Z,102909.77
2023-02-14T06:45:01.030Z,102909.69
2023-02-14T06:46:05.487Z,102910.56
2023-02-14T06:47:09.873Z,102910.61
2023-02-14T06:48:15.203Z,102913.63
2023-02-14T06:49:19.483Z,102921.79
2023-02-14T06:50:23.847Z,102918.73
2023-02-14T06:51:28.159Z,102918.83
2023-02-14T06:52:32.449Z,102922.59
2023-02-14T06:53:36.828Z,102913.75
2023-02-14T06:54:41.153Z,102919.62
2023-02-14T06:55:45.697Z,102919.16
2023-02-14T06:56:50.120Z,102914.26
2023-02-14T06:57:54.413Z,102912.23
2023-02-14T06:58:58.728Z,102914.96
2023-02-14T07:00:03.012Z,102921.66
2023-02-14T07:01:07.372Z,102919.02
2023-02-14T07:02:11.997Z,102921.61
2023-02-14T07:03:16.453Z,102922.7
2023-02-14T07:04:20.731Z,102924.42
2023-02-14T07:05:25.045Z,102926.8
2023-02-14T07:06:30.370Z,102923.73
2023-02-14T07:07:34.653Z,102928.22
2023-02-14T07:08:38.991Z,102925.59
2023-02-14T07:09:46.000Z,102920.98
2023-02-14T07:10:50.287Z,102924.67
2023-02-14T07:11:54.596Z,102929.83
2023-02-14T07:12:58.894Z,102932.98
2023-02-14T07:14:03.198Z,102934.45
2023-02-14T07:15:07.675Z,102935.88
2023-02-14T07:16:12.145Z,102938.3
2023-02-14T07:17:16.525Z,102941.48
2023-02-14T07:18:20.836Z,102942.95
2023-02-14T07:19:25.147Z,102938.3
2023-02-14T07:20:29.580Z,102940.77
2023-02-14T07:21:34.008Z,102936.2
2023-02-14T07:22:38.323Z,102936.78
2023-02-14T07:23:42.634Z,102935.19
2023-02-14T07:24:46.917Z,102935.7
2023-02-14T07:25:51.218Z,102935.81
2023-02-14T07:26:55.588Z,102938.48
2023-02-14T07:27:59.888Z,102948.11
2023-02-14T07:29:04.245Z,102944.3
2023-02-14T07:30:08.681Z,102946.22
2023-02-14T07:31:13.563Z,102943.45
2023-02-14T07:32:18.389Z,102952.91
2023-02-14T07:33:22.921Z,102946.05
2023-02-14T07:34:27.341Z,102952.07
2023-02-14T07:35:31.670Z,102952.81
2023-02-14T07:36:35.973Z,102951.02
2023-02-14T07:37:40.272Z,102955.19
2023-02-14T07:38:44.554Z,102954.05
2023-02-14T07:39:48.972Z,102950.45
2023-02-14T07:40:55.740Z,102955.37
2023-02-14T07:42:00.373Z,102953.81
2023-02-14T07:43:04.659Z,102957.13
2023-02-14T07:44:08.966Z,102958.42
2023-02-14T07:45:23.195Z,102956.06
2023-02-14T07:46:27.663Z,102951.71
2023-02-14T07:47:32.101Z,102957.65
2023-02-14T07:48:36.688Z,102956.45
2023-02-14T07:49:41.016Z,102952.47
2023-02-14T07:50:45.346Z,102950.45
2023-02-14T07:51:49.671Z,102954.14
2023-02-14T07:52:54.016Z,102948.41
2023-02-14T07:53:59.326Z,102952.67
2023-02-14T07:55:03.628Z,102951.87
2023-02-14T07:56:07.968Z,102954.23
2023-02-14T07:57:12.344Z,102960.99
2023-02-14T07:58:16.654Z,102947.78
2023-02-14T07:59:20.951Z,102948.98
2023-02-14T08:00:27.761Z,102946.91
2023-02-14T08:01:32.157Z,102955.75
2023-02-14T08:02:36.568Z,102948.63
2023-02-14T08:03:40.854Z,102953.94
2023-02-14T08:04:45.217Z,102952.39
2023-02-14T08:05:49.553Z,102950.14
2023-02-14T08:06:53.863Z,102958.6
2023-02-14T08:07:58.160Z,102942.91
2023-02-14T08:09:02.477Z,102949.6
2023-02-14T08:10:06.819Z,102952.23
2023-02-14T08:11:11.132Z,102952.74
2023-02-14T08:12:15.456Z,102953.08
2023-02-14T08:13:19.786Z,102951.54
2023-02-14T08:14:24.354Z,102952.08
2023-02-14T08:15:28.678Z,102952.12
2023-02-14T08:16:33.162Z,102943.03
2023-02-14T08:17:37.731Z,102944.3
2023-02-14T08:18:42.067Z,102951
2023-02-14T08:19:47.403Z,102942.58
2023-02-14T08:20:51.953Z,102953.25
2023-02-14T08:21:56.275Z,102953.3
2023-02-14T08:23:00.558Z,102955.17
2023-02-14T08:24:04.833Z,102955.72
2023-02-14T08:25:09.148Z,102956.67
2023-02-14T08:26:13.443Z,102962.63
2023-02-14T08:27:17.722Z,102965.42
2023-02-14T08:28:25.241Z,102963.62
2023-02-14T08:29:29.578Z,102964.2
2023-02-14T08:30:34.018Z,102959.34
2023-02-14T08:31:38.607Z,102970.1
2023-02-14T08:32:43.312Z,102962.78
2023-02-14T08:33:47.630Z,102964.08
2023-02-14T08:34:52.044Z,102969.44
2023-02-14T08:35:56.379Z,102977.94
2023-02-14T08:37:00.666Z,102978.31
2023-02-14T08:38:04.943Z,102980.95
2023-02-14T08:39:09.309Z,102975.59
2023-02-14T08:40:13.651Z,102965.8
2023-02-14T08:41:18.029Z,102971.58
2023-02-14T08:42:22.405Z,102965.42
2023-02-14T08:43:26.683Z,102971.69
2023-02-14T08:44:31.118Z,102968.7
2023-02-14T08:45:35.454Z,102973.77
2023-02-14T08:46:39.918Z,102966
2023-02-14T08:47:44.389Z,102978.56
2023-02-14T08:48:48.768Z,102970.69
2023-02-14T08:49:53.073Z,102968.38
2023-02-14T08:50:57.706Z,102967.92
2023-02-14T08:52:02.834Z,102966.59
2023-02-14T08:53:07.125Z,102970.45
2023-02-14T08:54:11.436Z,102968.3
2023-02-14T08:55:15.804Z,102975.13
2023-02-14T08:56:20.206Z,102975.77
2023-02-14T08:57:24.558Z,102977.16
2023-02-14T08:58:29.739Z,102975.55
2023-02-14T08:59:36.218Z,102977.75
2023-02-14T09:00:40.780Z,102982.9
2023-02-14T09:01:45.425Z,102985.16
2023-02-14T09:02:49.721Z,102990.69
2023-02-14T09:03:54.222Z,102986.66
2023-02-14T09:04:59.739Z,102988.7
2023-02-14T09:06:04.069Z,102989.52
2023-02-14T09:07:08.522Z,102997.61
2023-02-14T09:08:12.913Z,102991.05
2023-02-14T09:09:17.263Z,102995.98
2023-02-14T09:10:21.681Z,102988.63
2023-02-14T09:11:26.125Z,102982.97
2023-02-14T09:12:30.405Z,102989.09
2023-02-14T09:13:34.699Z,102987.44
2023-02-14T09:14:39.075Z,102992.26
2023-02-14T09:15:43.444Z,102995.84
2023-02-14T09:16:48.042Z,102995.42
2023-02-14T09:17:52.709Z,102998.09
2023-02-14T09:18:57.200Z,102996.27
2023-02-14T09:20:01.637Z,102995.87
2023-02-14T09:21:05.979Z,102993.59
2023-02-14T09:22:10.297Z,103001.61
2023-02-14T09:23:14.649Z,102999.01
2023-02-14T09:24:18.932Z,103000.23
2023-02-14T09:25:23.257Z,102989.97
2023-02-14T09:26:27.623Z,102997.98
2023-02-14T09:27:31.911Z,103001.09
2023-02-14T09:28:36.342Z,102998.06
2023-02-14T09:29:40.656Z,102998.55
2023-02-14T09:30:44.986Z,103004.16
2023-02-14T09:31:49.634Z,102997.47
2023-02-14T09:32:54.128Z,102998.05
2023-02-14T09:33:58.411Z,102989.27
2023-02-14T09:35:02.702Z,102988.58
2023-02-14T09:36:08.031Z,102986.52
2023-02-14T09:37:12.360Z,102986.41
2023-02-14T09:38:16.674Z,102983.57
2023-02-14T09:39:23.251Z,102991.52
2023-02-14T09:40:27.535Z,102989.11
2023-02-14T09:41:31.886Z,102992.09
2023-02-14T09:42:36.182Z,102985.33
2023-02-14T09:43:40.472Z,102985.28
2023-02-14T09:44:44.875Z,102984.75
2023-02-14T09:45:49.282Z,102985.17
2023-02-14T09:46:53.672Z,102984.64
2023-02-14T09:47:57.977Z,102992.2
2023-02-14T09:49:02.389Z,102990.1
2023-02-14T09:50:07.050Z,102987.31
2023-02-14T09:51:11.509Z,102991.67
2023-02-14T09:52:17.545Z,102983.14
2023-02-14T09:53:21.894Z,102980.42
2023-02-14T09:54:26.241Z,102978.52
2023-02-14T09:55:30.579Z,102974.69
2023-02-14T09:56:51.521Z,102976.63
2023-02-14T09:57:55.966Z,102976.05
2023-02-14T09:59:00.244Z,102974.44
2023-02-14T10:00:04.584Z,102974.35
2023-02-14T10:01:09.022Z,102978.31
2023-02-14T10:02:13.534Z,102978.56
2023-02-14T10:03:17.889Z,102980.84
2023-02-14T10:04:22.184Z,102981.78
2023-02-14T10:05:26.502Z,102983.56
2023-02-14T10:06:30.792Z,102971.17
2023-02-14T10:07:35.106Z,102973.94
2023-02-14T10:08:39.407Z,102972.35
2023-02-14T10:09:43.723Z,102977.67
2023-02-14T10:10:48.035Z,102976.05
2023-02-14T10:11:52.413Z,102970.53
2023-02-14T10:12:56.753Z,102971.28
2023-02-14T10:14:01.105Z,102975.05
2023-02-14T10:15:05.379Z,102968.34
2023-02-14T10:16:09.890Z,102976.05
2023-02-14T10:17:14.220Z,102968.88
2023-02-14T10:18:18.557Z,102972.61
2023-02-14T10:19:22.844Z,102966.41
2023-02-14T10:20:27.139Z,102968.63
2023-02-14T10:21:31.839Z,102965.23
2023-02-14T10:22:36.110Z,102957.77
2023-02-14T10:23:40.418Z,102959.2
2023-02-14T10:24:44.749Z,102963.77
2023-02-14T10:25:49.103Z,102963.81
2023-02-14T10:26:53.418Z,102965.73
2023-02-14T10:27:57.712Z,102969.37
2023-02-14T10:29:01.989Z,102969.11
2023-02-14T10:30:06.396Z,102958.48
2023-02-14T10:31:10.921Z,102959.56
2023-02-14T10:32:15.431Z,102949.97
2023-02-14T10:33:19.790Z,102953.48
2023-02-14T10:34:24.073Z,102953.11
2023-02-14T10:35:28.365Z,102952.42
2023-02-14T10:36:32.635Z,102953.31
2023-02-14T10:37:36.936Z,102964.56
2023-02-14T10:38:41.235Z,102959.25
2023-02-14T10:39:45.577Z,102953.97
2023-02-14T10:40:49.890Z,102957.16
2023-02-14T10:41:54.198Z,102948.66
2023-02-14T10:42:58.480Z,102940.99
2023-02-14T10:44:02.794Z,102945.44
2023-02-14T10:45:07.101Z,102941.75
2023-02-14T10:46:11.585Z,102949.67
2023-02-14T10:47:16.050Z,102947.87
2023-02-14T10:48:20.390Z,102950.05
2023-02-14T10:49:24.758Z,102951.64
2023-02-14T10:50:29.047Z,102952.33
2023-02-14T10:51:35.120Z,102945.84
2023-02-14T10:52:39.405Z,102954.05
2023-02-14T10:53:43.701Z,102957.23
2023-02-14T10:54:48.090Z,102948.83
2023-02-14T10:55:52.409Z,102950.34
2023-02-14T10:56:59.363Z,102942.93
2023-02-14T10:58:03.709Z,102942.68
2023-02-14T10:59:08.017Z,102945.62
2023-02-14T11:00:12.331Z,102945.36
2023-02-14T11:01:16.786Z,102946.5
2023-02-14T11:02:21.270Z,102948.13
2023-02-14T11:03:25.687Z,102940.67
2023-02-14T11:04:30.038Z,102945.06
2023-02-14T11:05:34.375Z,102944.03
2023-02-14T11:06:38.702Z,102939.38
2023-02-14T11:07:43.032Z,102943.44
2023-02-14T11:08:47.381Z,102947.12
2023-02-14T11:09:52.162Z,102941.39
2023-02-14T11:10:56.645Z,102949.05
2023-02-14T11:12:01.081Z,102949.64
2023-02-14T11:13:05.380Z,102948.92
2023-02-14T11:14:09.695Z,102952.98
2023-02-14T11:15:13.999Z,102949.97
2023-02-14T11:16:18.552Z,102949.63
2023-02-14T11:17:22.931Z,102942.25
2023-02-14T11:18:27.226Z,102939.23
2023-02-14T11:19:31.557Z,102930.77
2023-02-14T11:20:35.864Z,102938.06
2023-02-14T11:21:40.185Z,102938.15
2023-02-14T11:22:44.673Z,102927.63
2023-02-14T11:23:48.987Z,102928.13
2023-02-14T11:24:53.292Z,102929.09
2023-02-14T11:25:58.055Z,102923.44
2023-02-14T11:27:02.808Z,102929.84
2023-02-14T11:28:07.124Z,102928.97
2023-02-14T11:29:11.418Z,102922.77
2023-02-14T11:30:15.738Z,102923.78
2023-02-14T11:31:20.404Z,102915.78
2023-02-14T11:32:24.906Z,102921.22
2023-02-14T11:33:29.220Z,102922.64
2023-02-14T11:34:33.495Z,102920.45
2023-02-14T11:35:37.782Z,102922.77
2023-02-14T11:36:42.082Z,102922.42
2023-02-14T11:37:46.421Z,102926.45
2023-02-14T11:38:50.700Z,102918.25
2023-02-14T11:39:55.003Z,102927.16
2023-02-14T11:41:00.332Z,102923.02
2023-02-14T11:42:05.144Z,102923.06
2023-02-14T11:43:15.317Z,102926.2
2023-02-14T11:44:19.623Z,102922.22
2023-02-14T11:45:23.894Z,102929.72
2023-02-14T11:46:28.370Z,102929.25
2023-02-14T11:47:32.735Z,102929.38
2023-02-14T11:48:39.832Z,102928
2023-02-14T11:49:44.139Z,102927.63
2023-02-14T11:50:48.426Z,102923.23
2023-02-14T11:51:52.697Z,102919.22
2023-02-14T11:52:57.193Z,102920.18
2023-02-14T11:54:01.612Z,102918.95
2023-02-14T11:55:05.986Z,102913.8
2023-02-14T11:56:10.278Z,102912.47
2023-02-14T11:57:14.575Z,102915.69
2023-02-14T11:58:18.852Z,102910.41
2023-02-14T11:59:24.230Z,102907.81
2023-02-14T12:00:28.515Z,102915.89
2023-02-14T12:01:32.803Z,102911.07
2023-02-14T12:02:37.194Z,102905.76
2023-02-14T12:03:41.685Z,102903.12
2023-02-14T12:04:47.825Z,102900.86
2023-02-14T12:05:52.186Z,102902.16
2023-02-14T12:06:56.483Z,102899.02
2023-02-14T12:08:00.934Z,102901.62
2023-02-14T12:09:05.230Z,102905.17
2023-02-14T12:10:09.540Z,102907.27
2023-02-14T12:11:13.839Z,102903.13
2023-02-14T12:12:18.177Z,102902.92
2023-02-14T12:13:22.476Z,102899.62
2023-02-14T12:14:26.738Z,102901.95
2023-02-14T12:15:31.162Z,102899.41
2023-02-14T12:16:35.481Z,102895.05
2023-02-14T12:17:39.821Z,102890.78
2023-02-14T12:18:44.116Z,102894.05